Arklow Rock — PBZM — position and weather

sailwx.info

Track history (hours):
 
Tides and Currents Weather Stations Pressure Air Temp Water Temp Dewpoint Dewpoint Depression Visibility Wind Speed Wind Dir Waves Ship Positions

Arklow Rock

Last reported at 2015-Sep-02 11:33 UTC. Time now 2015-Sep-03 19:16 UTC.
Position N 50°37' E 000°23'.

Length 90 m; draft 6.3 m.

Type: Cargo ship. MMSI: 246002000.

Date/timePositionNaut miles runAvg speedWind from/ knotsBaromVisibWave heightAir tempDewpointWater temp
2015-Sep-02 11:33N 50°37' E 000°23'9 9.1
2015-Sep-02 10:34N 50°40' E 000°36'1110.9
2015-Sep-02 09:34N 50°46' E 000°51'1312.9
2015-Sep-02 08:33N 50°54' E 001°07'1313.6
2015-Sep-02 07:34N 51°02' E 001°24'1212.3
2015-Sep-02 06:34N 51°10' E 001°38'1010.4
2015-Sep-02 05:34N 51°18' E 001°49'9 9.4
2015-Sep-02 04:33N 51°26' E 001°58'9 9.1
2015-Sep-02 03:34N 51°33' E 002°06'14910.5
2015-Sep-01 13:22N 53°29' E 004°42'911.2
2015-Sep-01 12:33N 53°32' E 004°56'1110.8
2015-Sep-01 11:33N 53°36' E 005°13'10 9.8
2015-Sep-01 10:34N 53°39' E 005°29'9 9.1
2015-Sep-01 09:33N 53°42' E 005°44'9 8.8
2015-Sep-01 08:29N 53°45' E 005°59'37 9.2
2015-Sep-01 04:32N 53°55' E 006°58'1110.8
2015-Sep-01 03:32N 53°57' E 007°16'1111.5
2015-Sep-01 02:34N 54°00' E 007°34'1111.0
2015-Sep-01 01:34N 54°01' E 007°53'1010.1
2015-Sep-01 00:34N 54°00' E 008°10'9 9.0
2015-Aug-31 23:34N 53°59' E 008°25'9 8.6
2015-Aug-31 22:33N 53°57' E 008°39'9 9.1
2015-Aug-31 21:34N 53°50' E 008°50'1111.0
2015-Aug-31 20:32N 53°54' E 009°09'2 1.7
2015-Aug-31 19:32N 53°55' E 009°11'0 0.0
2015-Aug-31 18:23N 53°55' E 009°11'0 0.0
2015-Aug-31 17:32N 53°55' E 009°11'0 0.0
2015-Aug-31 16:33N 53°55' E 009°11'0 0.4
2015-Aug-31 15:31N 53°54' E 009°10'0 0.0
2015-Aug-31 14:25N 53°54' E 009°10'0 0.0
2015-Aug-31 13:28N 53°54' E 009°10'0 0.0
2015-Aug-31 12:31N 53°54' E 009°10'0 0.0
2015-Aug-31 11:31N 53°54' E 009°10'0 0.0
2015-Aug-31 10:31N 53°54' E 009°10'0 0.0
2015-Aug-31 09:28N 53°54' E 009°10'0 0.0
2015-Aug-31 08:31N 53°54' E 009°10'0 0.0
2015-Aug-31 07:31N 53°54' E 009°10'0 0.0
2015-Aug-31 06:31N 53°54' E 009°10'0 0.0
2015-Aug-31 05:28N 53°54' E 009°10'0 0.0
2015-Aug-31 04:31N 53°54' E 009°10'0 0.0
2015-Aug-31 03:34N 53°54' E 009°10'0 0.0
2015-Aug-31 02:31N 53°54' E 009°10'0 0.0
2015-Aug-31 01:33N 53°54' E 009°10'0 0.0
2015-Aug-31 00:24N 53°54' E 009°10'0 0.0
2015-Aug-30 23:31N 53°54' E 009°10'0 0.0
2015-Aug-30 22:33N 53°54' E 009°10'0 0.0
2015-Aug-30 21:31N 53°54' E 009°10'0 0.0
2015-Aug-30 20:30N 53°54' E 009°10'0 0.0
2015-Aug-30 19:33N 53°54' E 009°10'0 0.0
2015-Aug-30 18:33N 53°54' E 009°10'0 0.0
2015-Aug-30 17:33N 53°54' E 009°10'0 0.0
2015-Aug-30 16:33N 53°54' E 009°10'1 1.3
2015-Aug-30 15:33N 53°54' E 009°09'1 1.0
2015-Aug-30 14:32N 53°53' E 009°10'0 0.0
2015-Aug-30 13:31N 53°53' E 009°10'0 0.0
2015-Aug-30 12:32N 53°53' E 009°10'0 0.0
2015-Aug-30 11:31N 53°53' E 009°10'0 0.0
2015-Aug-30 10:32N 53°53' E 009°10'0 0.0
2015-Aug-30 09:32N 53°53' E 009°09'0 0.1
2015-Aug-30 08:32N 53°53' E 009°09'0 0.0
2015-Aug-30 07:33N 53°53' E 009°09'0 0.2
2015-Aug-30 06:33N 53°53' E 009°09'8 7.9
2015-Aug-30 05:33N 53°51' E 008°56'7 7.5
2015-Aug-30 04:33N 53°52' E 008°44'8 7.8
2015-Aug-30 03:33N 53°58' E 008°35'9 9.3
2015-Aug-30 02:33N 53°59' E 008°19'10 9.7
2015-Aug-30 01:33N 53°59' E 008°03'9 8.9
2015-Aug-30 00:33N 53°57' E 007°48'9 8.9
2015-Aug-29 23:33N 53°55' E 007°33'9 9.1
2015-Aug-29 22:33N 53°53' E 007°18'10 9.8
2015-Aug-29 21:33N 53°51' E 007°02'1110.8
2015-Aug-29 20:33N 53°48' E 006°44'2411.1
2015-Aug-29 18:23N 53°42' E 006°05'1012.5
2015-Aug-29 17:33N 53°38' E 005°48'1313.2
2015-Aug-29 16:33N 53°34' E 005°27'1313.1
2015-Aug-29 15:33N 53°30' E 005°07'1312.7
2015-Aug-29 14:33N 53°25' E 004°47'4711.7
2015-Aug-29 10:33N 52°45' E 004°07'11611.6
2015-Aug-29 00:33N 51°45' E 001°26'1313.4
2015-Aug-28 23:34N 51°35' E 001°11'1111.2
2015-Aug-28 22:34N 51°30' E 000°55'10 9.9
2015-Aug-28 21:33N 51°30' E 000°39'9 8.8
2015-Aug-28 20:34N 51°27' E 000°25'9 8.8
2015-Aug-28 19:33N 51°29' E 000°12'1 0.8
2015-Aug-28 18:33N 51°29' E 000°10'0 0.0
2015-Aug-28 17:33N 51°29' E 000°10'0 0.0
2015-Aug-28 16:33N 51°29' E 000°10'0 0.0
2015-Aug-28 15:30N 51°29' E 000°10'0 0.0
2015-Aug-28 14:33N 51°29' E 000°10'0 0.0
2015-Aug-28 13:33N 51°29' E 000°10'0 0.0
2015-Aug-28 12:33N 51°29' E 000°10'0 0.0
2015-Aug-28 11:33N 51°29' E 000°10'0 0.0
2015-Aug-28 10:33N 51°29' E 000°10'0 0.0
2015-Aug-28 09:27N 51°29' E 000°10'0 0.0
2015-Aug-28 08:33N 51°29' E 000°10'0 0.0
2015-Aug-28 07:33N 51°29' E 000°10'0 0.0
2015-Aug-28 06:32N 51°29' E 000°10'0 0.0
2015-Aug-28 05:32N 51°29' E 000°10'0 0.0
2015-Aug-28 04:32N 51°29' E 000°10'0 0.0
2015-Aug-28 03:32N 51°29' E 000°10'0 0.0
2015-Aug-28 02:32N 51°29' E 000°10'0 0.0
2015-Aug-28 01:32N 51°29' E 000°10'0 0.0
2015-Aug-28 00:32N 51°29' E 000°10'0 0.0
2015-Aug-27 23:32N 51°29' E 000°10'0 0.0
2015-Aug-27 22:32N 51°29' E 000°10'0 0.0
2015-Aug-27 21:32N 51°29' E 000°10'0 0.0
2015-Aug-27 20:29N 51°29' E 000°10'2 2.6
2015-Aug-27 19:33N 51°29' E 000°14'8 8.1
2015-Aug-27 18:33N 51°29' E 000°27'10 9.8
2015-Aug-27 17:33N 51°30' E 000°43'10 9.9
2015-Aug-27 16:33N 51°29' E 000°59'10 9.7
2015-Aug-27 15:33N 51°29' E 001°14'9 9.3
2015-Aug-27 14:34N 51°26' E 001°28'3 3.0
2015-Aug-27 13:34N 51°25' E 001°24'0 0.0
2015-Aug-27 12:33N 51°25' E 001°24'0 0.0
2015-Aug-27 11:33N 51°25' E 001°24'0 0.0
2015-Aug-27 10:34N 51°25' E 001°24'0 0.1
2015-Aug-27 09:34N 51°25' E 001°23'0 0.0
2015-Aug-27 08:34N 51°25' E 001°23'5 5.2
2015-Aug-27 07:33N 51°24' E 001°32'1010.3
2015-Aug-27 06:33N 51°14' E 001°37'9 8.5
2015-Aug-27 05:33N 51°06' E 001°41'9 9.3
2015-Aug-27 04:33N 50°60' E 001°30'9 9.1
2015-Aug-27 03:33N 50°52' E 001°23'16610.8
2015-Aug-26 12:10N 50°11' W 002°51'6 9.9
2015-Aug-26 11:33N 50°10' W 003°01'10 9.7
2015-Aug-26 10:33N 50°09' W 003°16'165 6.1
2015-Aug-25 07:33N 52°24' W 005°47'11310.9
2015-Aug-24 21:15N 54°15' W 005°22'811.1
2015-Aug-24 20:33N 54°23' W 005°20'1110.8
2015-Aug-24 19:33N 54°33' W 005°24'1010.0
2015-Aug-24 18:34N 54°43' W 005°31'1010.5
2015-Aug-24 17:34N 54°41' W 005°49'4 4.1
2015-Aug-24 16:28N 54°37' W 005°54'0 0.0
2015-Aug-24 15:28N 54°37' W 005°54'0 0.0
2015-Aug-24 14:19N 54°37' W 005°54'0 0.0
2015-Aug-24 13:31N 54°37' W 005°54'0 0.0
2015-Aug-24 12:28N 54°37' W 005°54'0 0.0
2015-Aug-24 11:31N 54°37' W 005°54'0 0.0
2015-Aug-24 10:25N 54°37' W 005°54'0 0.0
2015-Aug-24 09:25N 54°37' W 005°54'0 0.0
2015-Aug-24 08:28N 54°37' W 005°54'0 0.0
2015-Aug-24 07:31N 54°37' W 005°54'0 0.0
2015-Aug-24 06:28N 54°37' W 005°54'0 0.0
2015-Aug-24 05:31N 54°37' W 005°54'0 0.0
2015-Aug-24 04:28N 54°37' W 005°54'0 0.0
2015-Aug-24 03:34N 54°37' W 005°54'0 0.0
2015-Aug-24 02:33N 54°37' W 005°54'0 0.0
2015-Aug-24 01:24N 54°37' W 005°54'0 0.0
2015-Aug-24 00:30N 54°37' W 005°54'0 0.0
2015-Aug-23 23:30N 54°37' W 005°54'0 0.0
2015-Aug-23 22:27N 54°37' W 005°54'0 0.0
2015-Aug-23 20:03N 54°37' W 005°54'0 0.0
2015-Aug-23 19:33N 54°37' W 005°54'0 0.0
2015-Aug-23 18:24N 54°37' W 005°54'0 0.0
2015-Aug-23 17:33N 54°37' W 005°54'0 0.0
2015-Aug-23 16:30N 54°37' W 005°54'0 0.0
2015-Aug-23 15:33N 54°37' W 005°54'0 0.0
2015-Aug-23 14:33N 54°37' W 005°54'0 0.0
2015-Aug-23 13:30N 54°37' W 005°54'0 0.0
2015-Aug-23 12:30N 54°37' W 005°54'  
Track history (hours):
 
Tides and Currents Weather Stations Pressure Air Temp Water Temp Dewpoint Dewpoint Depression Visibility Wind Speed Wind Dir Waves Ship Positions

Arklow Rock

Last reported at 2015-Sep-02 11:33 UTC. Time now 2015-Sep-03 19:16 UTC.
Position N 50°37' E 000°23'.

Length 90 m; draft 6.3 m.

Type: Cargo ship. MMSI: 246002000.

Date/timePositionNaut miles runAvg speedWind from/ knotsBaromVisibWave heightAir tempDewpointWater temp
2015-Sep-02 11:33N 50°37' E 000°23'9 9.1
2015-Sep-02 10:34N 50°40' E 000°36'1110.9
2015-Sep-02 09:34N 50°46' E 000°51'1312.9
2015-Sep-02 08:33N 50°54' E 001°07'1313.6
2015-Sep-02 07:34N 51°02' E 001°24'1212.3
2015-Sep-02 06:34N 51°10' E 001°38'1010.4
2015-Sep-02 05:34N 51°18' E 001°49'9 9.4
2015-Sep-02 04:33N 51°26' E 001°58'9 9.1
2015-Sep-02 03:34N 51°33' E 002°06'14910.5
2015-Sep-01 13:22N 53°29' E 004°42'911.2
2015-Sep-01 12:33N 53°32' E 004°56'1110.8
2015-Sep-01 11:33N 53°36' E 005°13'10 9.8
2015-Sep-01 10:34N 53°39' E 005°29'9 9.1
2015-Sep-01 09:33N 53°42' E 005°44'9 8.8
2015-Sep-01 08:29N 53°45' E 005°59'37 9.2
2015-Sep-01 04:32N 53°55' E 006°58'1110.8
2015-Sep-01 03:32N 53°57' E 007°16'1111.5
2015-Sep-01 02:34N 54°00' E 007°34'1111.0
2015-Sep-01 01:34N 54°01' E 007°53'1010.1
2015-Sep-01 00:34N 54°00' E 008°10'9 9.0
2015-Aug-31 23:34N 53°59' E 008°25'9 8.6
2015-Aug-31 22:33N 53°57' E 008°39'9 9.1
2015-Aug-31 21:34N 53°50' E 008°50'1111.0
2015-Aug-31 20:32N 53°54' E 009°09'2 1.7
2015-Aug-31 19:32N 53°55' E 009°11'0 0.0
2015-Aug-31 18:23N 53°55' E 009°11'0 0.0
2015-Aug-31 17:32N 53°55' E 009°11'0 0.0
2015-Aug-31 16:33N 53°55' E 009°11'0 0.4
2015-Aug-31 15:31N 53°54' E 009°10'0 0.0
2015-Aug-31 14:25N 53°54' E 009°10'0 0.0
2015-Aug-31 13:28N 53°54' E 009°10'0 0.0
2015-Aug-31 12:31N 53°54' E 009°10'0 0.0
2015-Aug-31 11:31N 53°54' E 009°10'0 0.0
2015-Aug-31 10:31N 53°54' E 009°10'0 0.0
2015-Aug-31 09:28N 53°54' E 009°10'0 0.0
2015-Aug-31 08:31N 53°54' E 009°10'0 0.0
2015-Aug-31 07:31N 53°54' E 009°10'0 0.0
2015-Aug-31 06:31N 53°54' E 009°10'0 0.0
2015-Aug-31 05:28N 53°54' E 009°10'0 0.0
2015-Aug-31 04:31N 53°54' E 009°10'0 0.0
2015-Aug-31 03:34N 53°54' E 009°10'0 0.0
2015-Aug-31 02:31N 53°54' E 009°10'0 0.0
2015-Aug-31 01:33N 53°54' E 009°10'0 0.0
2015-Aug-31 00:24N 53°54' E 009°10'0 0.0
2015-Aug-30 23:31N 53°54' E 009°10'0 0.0
2015-Aug-30 22:33N 53°54' E 009°10'0 0.0
2015-Aug-30 21:31N 53°54' E 009°10'0 0.0
2015-Aug-30 20:30N 53°54' E 009°10'0 0.0
2015-Aug-30 19:33N 53°54' E 009°10'0 0.0
2015-Aug-30 18:33N 53°54' E 009°10'0 0.0
2015-Aug-30 17:33N 53°54' E 009°10'0 0.0
2015-Aug-30 16:33N 53°54' E 009°10'1 1.3
2015-Aug-30 15:33N 53°54' E 009°09'1 1.0
2015-Aug-30 14:32N 53°53' E 009°10'0 0.0
2015-Aug-30 13:31N 53°53' E 009°10'0 0.0
2015-Aug-30 12:32N 53°53' E 009°10'0 0.0
2015-Aug-30 11:31N 53°53' E 009°10'0 0.0
2015-Aug-30 10:32N 53°53' E 009°10'0 0.0
2015-Aug-30 09:32N 53°53' E 009°09'0 0.1
2015-Aug-30 08:32N 53°53' E 009°09'0 0.0
2015-Aug-30 07:33N 53°53' E 009°09'0 0.2
2015-Aug-30 06:33N 53°53' E 009°09'8 7.9
2015-Aug-30 05:33N 53°51' E 008°56'7 7.5
2015-Aug-30 04:33N 53°52' E 008°44'8 7.8
2015-Aug-30 03:33N 53°58' E 008°35'9 9.3
2015-Aug-30 02:33N 53°59' E 008°19'10 9.7
2015-Aug-30 01:33N 53°59' E 008°03'9 8.9
2015-Aug-30 00:33N 53°57' E 007°48'9 8.9
2015-Aug-29 23:33N 53°55' E 007°33'9 9.1
2015-Aug-29 22:33N 53°53' E 007°18'10 9.8
2015-Aug-29 21:33N 53°51' E 007°02'1110.8
2015-Aug-29 20:33N 53°48' E 006°44'2411.1
2015-Aug-29 18:23N 53°42' E 006°05'1012.5
2015-Aug-29 17:33N 53°38' E 005°48'1313.2
2015-Aug-29 16:33N 53°34' E 005°27'1313.1
2015-Aug-29 15:33N 53°30' E 005°07'1312.7
2015-Aug-29 14:33N 53°25' E 004°47'4711.7
2015-Aug-29 10:33N 52°45' E 004°07'11611.6
2015-Aug-29 00:33N 51°45' E 001°26'1313.4
2015-Aug-28 23:34N 51°35' E 001°11'1111.2
2015-Aug-28 22:34N 51°30' E 000°55'10 9.9
2015-Aug-28 21:33N 51°30' E 000°39'9 8.8
2015-Aug-28 20:34N 51°27' E 000°25'9 8.8
2015-Aug-28 19:33N 51°29' E 000°12'1 0.8
2015-Aug-28 18:33N 51°29' E 000°10'0 0.0
2015-Aug-28 17:33N 51°29' E 000°10'0 0.0
2015-Aug-28 16:33N 51°29' E 000°10'0 0.0
2015-Aug-28 15:30N 51°29' E 000°10'0 0.0
2015-Aug-28 14:33N 51°29' E 000°10'0 0.0
2015-Aug-28 13:33N 51°29' E 000°10'0 0.0
2015-Aug-28 12:33N 51°29' E 000°10'0 0.0
2015-Aug-28 11:33N 51°29' E 000°10'0 0.0
2015-Aug-28 10:33N 51°29' E 000°10'0 0.0
2015-Aug-28 09:27N 51°29' E 000°10'0 0.0
2015-Aug-28 08:33N 51°29' E 000°10'0 0.0
2015-Aug-28 07:33N 51°29' E 000°10'0 0.0
2015-Aug-28 06:32N 51°29' E 000°10'0 0.0
2015-Aug-28 05:32N 51°29' E 000°10'0 0.0
2015-Aug-28 04:32N 51°29' E 000°10'0 0.0
2015-Aug-28 03:32N 51°29' E 000°10'0 0.0
2015-Aug-28 02:32N 51°29' E 000°10'0 0.0
2015-Aug-28 01:32N 51°29' E 000°10'0 0.0
2015-Aug-28 00:32N 51°29' E 000°10'0 0.0
2015-Aug-27 23:32N 51°29' E 000°10'0 0.0
2015-Aug-27 22:32N 51°29' E 000°10'0 0.0
2015-Aug-27 21:32N 51°29' E 000°10'0 0.0
2015-Aug-27 20:29N 51°29' E 000°10'2 2.6
2015-Aug-27 19:33N 51°29' E 000°14'8 8.1
2015-Aug-27 18:33N 51°29' E 000°27'10 9.8
2015-Aug-27 17:33N 51°30' E 000°43'10 9.9
2015-Aug-27 16:33N 51°29' E 000°59'10 9.7
2015-Aug-27 15:33N 51°29' E 001°14'9 9.3
2015-Aug-27 14:34N 51°26' E 001°28'3 3.0
2015-Aug-27 13:34N 51°25' E 001°24'0 0.0
2015-Aug-27 12:33N 51°25' E 001°24'0 0.0
2015-Aug-27 11:33N 51°25' E 001°24'0 0.0
2015-Aug-27 10:34N 51°25' E 001°24'0 0.1
2015-Aug-27 09:34N 51°25' E 001°23'0 0.0
2015-Aug-27 08:34N 51°25' E 001°23'5 5.2
2015-Aug-27 07:33N 51°24' E 001°32'1010.3
2015-Aug-27 06:33N 51°14' E 001°37'9 8.5
2015-Aug-27 05:33N 51°06' E 001°41'9 9.3
2015-Aug-27 04:33N 50°60' E 001°30'9 9.1
2015-Aug-27 03:33N 50°52' E 001°23'16610.8
2015-Aug-26 12:10N 50°11' W 002°51'6 9.9
2015-Aug-26 11:33N 50°10' W 003°01'10 9.7
2015-Aug-26 10:33N 50°09' W 003°16'165 6.1
2015-Aug-25 07:33N 52°24' W 005°47'11310.9
2015-Aug-24 21:15N 54°15' W 005°22'811.1
2015-Aug-24 20:33N 54°23' W 005°20'1110.8
2015-Aug-24 19:33N 54°33' W 005°24'1010.0
2015-Aug-24 18:34N 54°43' W 005°31'1010.5
2015-Aug-24 17:34N 54°41' W 005°49'4 4.1
2015-Aug-24 16:28N 54°37' W 005°54'0 0.0
2015-Aug-24 15:28N 54°37' W 005°54'0 0.0
2015-Aug-24 14:19N 54°37' W 005°54'0 0.0
2015-Aug-24 13:31N 54°37' W 005°54'0 0.0
2015-Aug-24 12:28N 54°37' W 005°54'0 0.0
2015-Aug-24 11:31N 54°37' W 005°54'0 0.0
2015-Aug-24 10:25N 54°37' W 005°54'0 0.0
2015-Aug-24 09:25N 54°37' W 005°54'0 0.0
2015-Aug-24 08:28N 54°37' W 005°54'0 0.0
2015-Aug-24 07:31N 54°37' W 005°54'0 0.0
2015-Aug-24 06:28N 54°37' W 005°54'0 0.0
2015-Aug-24 05:31N 54°37' W 005°54'0 0.0
2015-Aug-24 04:28N 54°37' W 005°54'0 0.0
2015-Aug-24 03:34N 54°37' W 005°54'0 0.0
2015-Aug-24 02:33N 54°37' W 005°54'0 0.0
2015-Aug-24 01:24N 54°37' W 005°54'0 0.0
2015-Aug-24 00:30N 54°37' W 005°54'0 0.0
2015-Aug-23 23:30N 54°37' W 005°54'0 0.0
2015-Aug-23 22:27N 54°37' W 005°54'0 0.0
2015-Aug-23 20:03N 54°37' W 005°54'0 0.0
2015-Aug-23 19:33N 54°37' W 005°54'0 0.0
2015-Aug-23 18:24N 54°37' W 005°54'0 0.0
2015-Aug-23 17:33N 54°37' W 005°54'0 0.0
2015-Aug-23 16:30N 54°37' W 005°54'0 0.0
2015-Aug-23 15:33N 54°37' W 005°54'0 0.0
2015-Aug-23 14:33N 54°37' W 005°54'0 0.0
2015-Aug-23 13:30N 54°37' W 005°54'0 0.0
2015-Aug-23 12:30N 54°37' W 005°54'  

Dump ship's entire track history